Cerro, NM

7:21 PM MDT on September 16, 2014 (GMT -0600)
Angel Fire | Change Station
CLOSE
Current Station
Airport
Location: Angel Fire,
Elevation: 8379 ft
Nearby Weather Stations

Elev 8379 ft 36.42 °N, 105.29 °W | Updated 6 minutes ago

Partly Cloudy
Partly Cloudy
54 °F
Feels Like 54 °F
N
0
Wind Variable Wind from North

Today
High -- | Low -- °F
--% Chance of Precip.
Yesterday
High -- | Low -- °F
Precip. -- in
6:45 AM 7:07 PM
Last Quarter, 41% visible
Pressure 30.37 in
Visibility 10.0 miles
Clouds Mostly Cloudy 9000 ft
Dew Point 46 °F
Humidity 76%
Rainfall 0.00 in
Snow Depth 2 in , 1 in , 0 in
UV 0 out of 12
Pollen 5.00 out of 12
Air Quality Not available.
Flu Activity Not available.
METAR KAXX 170115Z AUTO 00000KT 10SM BKN090 12/08 A3037 RMK AO2 T01220080

More Conditions Fewer Conditions

Pressure 30.37 in
Visibility 10.0 miles
Clouds Mostly Cloudy 9000 ft
Dew Point 46 °F
Humidity 76%
Rainfall 0.00 in
Snow Depth 2 in , 1 in , 0 in
UV 0 out of 12
Pollen 5.00 out of 12
Air Quality Not available.
Flu Activity Not available.
METAR KAXX 170115Z AUTO 00000KT 10SM BKN090 12/08 A3037 RMK AO2 T01220080

More Conditions Fewer Conditions

10-Day Weather Forecast

Almanac

Astronomy

Sep. 16, 2014 Rise Set
Actual Time 6:45 AM MDT 7:07 PM MDT
Civil Twilight 6:19 AM MDT 7:33 PM MDT
Nautical Twilight 5:48 AM MDT 8:04 PM MDT
Astronomical Twilight 5:17 AM MDT 8:34 PM MDT
Moon 12:03 AM MDT (9/16) 2:27 PM MDT (9/16)
Length of Visible Light 13h 14m
Length of Day
12h 22m
Tomorrow will be 2m 19s shorter.
Last Quarter, 41% of the Moon is Illuminated
Today
Last Quarter
Sep 24
New
Oct 1
First Quarter
Oct 8
Full
Oct 15
Last Quarter

Today's Extremes

State Highs State Lows

Community

WunderPhotos

Upload Photos

1,753,943 photos uploaded!

Nearby

Snow Depth

Station Depth Elevation
Wesner Springs 2 in 11120 ft
Silver Creek Divide 1 in 9000 ft
Sierra Blanca 0 in 10280 ft
Gallegos Peak 0 in 9800 ft
Elk Cabin 145 in 8210 ft

Earthquake Activity

City Distance Mag. Time & Date
No recent earthquake activity has been reported nearby.
Minimum magnitude displayed is 2.5.

Coastal Water Temperatures

Place Temperature
No Stations Reporting

Nearby Weather Stations